createdAt,value
2018-12-09T00:00:38.693Z,0
2018-12-09T00:01:40.819Z,0
2018-12-09T00:02:42.946Z,0
2018-12-09T00:03:45.270Z,0
2018-12-09T00:04:47.696Z,0
2018-12-09T00:05:49.803Z,0
2018-12-09T00:06:52.228Z,0
2018-12-09T00:07:54.342Z,0
2018-12-09T00:08:56.470Z,0
2018-12-09T00:09:58.592Z,0
2018-12-09T00:11:00.715Z,0
2018-12-09T00:12:03.236Z,0
2018-12-09T00:13:05.362Z,0
2018-12-09T00:14:07.485Z,0
2018-12-09T00:15:09.598Z,0
2018-12-09T00:16:11.724Z,0
2018-12-09T00:17:13.886Z,0
2018-12-09T00:18:16.003Z,0
2018-12-09T00:19:18.141Z,0
2018-12-09T00:20:20.259Z,0
2018-12-09T00:21:22.397Z,0
2018-12-09T00:22:24.531Z,0
2018-12-09T00:23:26.644Z,0
2018-12-09T00:24:28.776Z,0
2018-12-09T00:25:30.894Z,0
2018-12-09T00:26:32.995Z,0
2018-12-09T00:27:35.117Z,0
2018-12-09T00:28:37.229Z,0
2018-12-09T00:29:39.350Z,0
2018-12-09T00:30:41.498Z,0
2018-12-09T00:31:43.645Z,0
2018-12-09T00:32:46.050Z,0
2018-12-09T00:33:48.179Z,0
2018-12-09T00:34:50.286Z,0
2018-12-09T00:35:52.390Z,0
2018-12-09T00:36:54.517Z,0
2018-12-09T00:37:56.635Z,0
2018-12-09T00:38:58.761Z,0
2018-12-09T00:40:01.270Z,0
2018-12-09T00:41:03.411Z,0
2018-12-09T00:42:05.507Z,0
2018-12-09T00:43:07.637Z,0
2018-12-09T00:44:10.031Z,0
2018-12-09T00:45:12.153Z,0
2018-12-09T00:46:14.307Z,0
2018-12-09T00:47:17.061Z,0
2018-12-09T00:48:19.171Z,0
2018-12-09T00:49:21.283Z,0
2018-12-09T00:50:23.430Z,0
2018-12-09T00:51:25.545Z,0
2018-12-09T00:52:28.146Z,0
2018-12-09T00:53:30.565Z,0
2018-12-09T00:54:32.772Z,0
2018-12-09T00:55:34.900Z,0
2018-12-09T00:56:37.019Z,0
2018-12-09T00:57:39.532Z,0
2018-12-09T00:58:41.951Z,0
2018-12-09T00:59:44.063Z,0
2018-12-09T01:00:46.185Z,0
2018-12-09T01:01:48.290Z,0
2018-12-09T01:02:50.796Z,0
2018-12-09T01:03:53.008Z,0
2018-12-09T01:04:55.418Z,0
2018-12-09T01:05:57.525Z,0
2018-12-09T01:06:59.657Z,0
2018-12-09T01:08:01.769Z,0
2018-12-09T01:09:03.884Z,0
2018-12-09T01:10:06.013Z,0
2018-12-09T01:11:08.113Z,0
2018-12-09T01:12:10.232Z,0
2018-12-09T01:13:12.744Z,0
2018-12-09T01:14:15.152Z,0
2018-12-09T01:15:17.258Z,0
2018-12-09T01:16:19.394Z,0
2018-12-09T01:17:21.508Z,0
2018-12-09T01:18:23.611Z,0
2018-12-09T01:19:25.848Z,0
2018-12-09T01:20:27.954Z,0
2018-12-09T01:21:30.357Z,0
2018-12-09T01:22:32.783Z,0
2018-12-09T01:23:34.919Z,0
2018-12-09T01:24:37.051Z,0
2018-12-09T01:25:39.748Z,0
2018-12-09T01:26:41.914Z,0
2018-12-09T01:27:44.037Z,0
2018-12-09T01:28:46.291Z,0
2018-12-09T01:29:48.430Z,0
2018-12-09T01:30:50.867Z,0
2018-12-09T01:31:53.009Z,0
2018-12-09T01:32:56.051Z,0
2018-12-09T01:33:58.387Z,0
2018-12-09T01:35:00.806Z,0
2018-12-09T01:36:03.068Z,0
2018-12-09T01:37:05.503Z,0
2018-12-09T01:38:07.919Z,0
2018-12-09T01:39:10.055Z,0
2018-12-09T01:40:12.600Z,0
2018-12-09T01:41:15.020Z,0
2018-12-09T01:42:17.269Z,0
2018-12-09T01:43:19.821Z,0
2018-12-09T01:44:21.971Z,0
2018-12-09T01:45:24.121Z,0
2018-12-09T01:46:26.271Z,0
2018-12-09T01:47:28.712Z,0
2018-12-09T01:48:31.758Z,0
2018-12-09T01:49:34.291Z,0
2018-12-09T01:50:36.747Z,0
2018-12-09T01:51:39.265Z,0
2018-12-09T01:52:41.419Z,0
2018-12-09T01:53:43.544Z,0
2018-12-09T01:54:45.675Z,0
2018-12-09T01:55:47.833Z,0
2018-12-09T01:56:50.608Z,0
2018-12-09T01:57:52.739Z,0
2018-12-09T01:58:55.018Z,0
2018-12-09T01:59:57.206Z,0
2018-12-09T02:00:59.396Z,0
2018-12-09T02:02:01.576Z,0
2018-12-09T02:03:04.111Z,0
2018-12-09T02:04:07.446Z,0
2018-12-09T02:05:10.720Z,0
2018-12-09T02:06:13.200Z,0
2018-12-09T02:07:15.612Z,0
2018-12-09T02:08:17.770Z,0
2018-12-09T02:09:20.211Z,0
2018-12-09T02:10:22.385Z,0
2018-12-09T02:11:24.521Z,0
2018-12-09T02:12:26.959Z,0
2018-12-09T02:13:29.138Z,0
2018-12-09T02:14:31.673Z,0
2018-12-09T02:15:34.098Z,0
2018-12-09T02:16:36.262Z,0
2018-12-09T02:17:38.519Z,0
2018-12-09T02:18:41.063Z,0
2018-12-09T02:19:43.215Z,0
2018-12-09T02:20:46.487Z,0
2018-12-09T02:21:49.259Z,0
2018-12-09T02:22:51.481Z,0
2018-12-09T02:23:53.633Z,0
2018-12-09T02:24:56.077Z,0
2018-12-09T02:25:58.231Z,0
2018-12-09T02:27:00.369Z,0
2018-12-09T02:28:02.529Z,0
2018-12-09T02:29:04.724Z,0
2018-12-09T02:30:06.908Z,0
2018-12-09T02:31:09.357Z,0
2018-12-09T02:32:12.219Z,0
2018-12-09T02:33:14.375Z,0
2018-12-09T02:34:16.798Z,0
2018-12-09T02:35:19.243Z,0
2018-12-09T02:36:22.734Z,0
2018-12-09T02:37:26.492Z,0
2018-12-09T02:38:28.946Z,0
2018-12-09T02:39:32.052Z,0
2018-12-09T02:40:34.181Z,0
2018-12-09T02:41:36.330Z,0
2018-12-09T02:42:38.784Z,0
2018-12-09T02:43:41.582Z,0
2018-12-09T02:44:43.722Z,0
2018-12-09T02:45:46.166Z,0
2018-12-09T02:46:48.303Z,0
2018-12-09T02:47:50.537Z,0
2018-12-09T02:48:52.686Z,0
2018-12-09T02:49:54.820Z,0
2018-12-09T02:50:57.541Z,0
2018-12-09T02:51:59.676Z,0
2018-12-09T02:53:03.044Z,0
2018-12-09T02:54:05.609Z,0
2018-12-09T02:55:08.087Z,0
2018-12-09T02:56:10.353Z,0
2018-12-09T02:57:12.798Z,0
2018-12-09T02:58:14.968Z,0
2018-12-09T02:59:17.671Z,0
2018-12-09T03:00:19.841Z,0
2018-12-09T03:01:22.552Z,0
2018-12-09T03:02:24.702Z,0
2018-12-09T03:03:26.831Z,0
2018-12-09T03:04:29.669Z,0
2018-12-09T03:05:31.983Z,0
2018-12-09T03:06:34.403Z,0
2018-12-09T03:07:36.563Z,0
2018-12-09T03:08:39.790Z,0
2018-12-09T03:09:42.400Z,0
2018-12-09T03:10:44.560Z,0
2018-12-09T03:11:46.697Z,0
2018-12-09T03:12:48.862Z,0
2018-12-09T03:13:51.019Z,0
2018-12-09T03:14:53.155Z,0
2018-12-09T03:15:55.722Z,0
2018-12-09T03:16:58.282Z,0
2018-12-09T03:18:00.702Z,0
2018-12-09T03:19:03.182Z,0
2018-12-09T03:20:05.338Z,0
2018-12-09T03:21:07.500Z,0
2018-12-09T03:22:09.628Z,0
2018-12-09T03:23:12.753Z,0
2018-12-09T03:24:16.455Z,0
2018-12-09T03:25:19.162Z,0
2018-12-09T03:26:21.301Z,0
2018-12-09T03:27:23.456Z,0
2018-12-09T03:28:25.635Z,0
2018-12-09T03:29:28.184Z,0
2018-12-09T03:30:31.696Z,0
2018-12-09T03:31:34.187Z,0
2018-12-09T03:32:36.739Z,0
2018-12-09T03:33:39.588Z,0
2018-12-09T03:34:42.033Z,0
2018-12-09T03:35:44.175Z,0
2018-12-09T03:36:46.964Z,0
2018-12-09T03:37:49.120Z,0
2018-12-09T03:38:51.251Z,0
2018-12-09T03:39:54.824Z,0
2018-12-09T03:40:57.103Z,0
2018-12-09T03:41:59.240Z,0
2018-12-09T03:43:01.393Z,0
2018-12-09T03:44:03.580Z,0
2018-12-09T03:45:06.043Z,0
2018-12-09T03:46:08.165Z,0
2018-12-09T03:47:10.349Z,0
2018-12-09T03:48:12.489Z,0
2018-12-09T03:49:14.641Z,0
2018-12-09T03:50:17.202Z,0
2018-12-09T03:51:19.350Z,0
2018-12-09T03:52:21.612Z,0
2018-12-09T03:53:23.811Z,0
2018-12-09T03:54:26.994Z,0
2018-12-09T03:55:29.322Z,0
2018-12-09T03:56:31.484Z,0
2018-12-09T03:57:33.682Z,0
2018-12-09T03:58:35.837Z,0
2018-12-09T03:59:38.289Z,0
2018-12-09T04:00:40.825Z,0
2018-12-09T04:01:42.960Z,0
2018-12-09T04:02:45.185Z,0
2018-12-09T04:03:47.326Z,0
2018-12-09T04:04:49.741Z,0
2018-12-09T04:05:51.918Z,0
2018-12-09T04:06:54.056Z,0
2018-12-09T04:07:56.212Z,0
2018-12-09T04:08:59.710Z,0
2018-12-09T04:10:02.234Z,0
2018-12-09T04:11:04.386Z,0
2018-12-09T04:12:06.827Z,0
2018-12-09T04:13:08.974Z,0
2018-12-09T04:14:11.136Z,0
2018-12-09T04:15:13.279Z,0
2018-12-09T04:16:15.792Z,0
2018-12-09T04:17:18.227Z,0
2018-12-09T04:18:20.377Z,0
2018-12-09T04:19:22.531Z,0
2018-12-09T04:20:24.713Z,0
2018-12-09T04:21:26.841Z,0
2018-12-09T04:22:28.984Z,0
2018-12-09T04:23:32.316Z,0
2018-12-09T04:24:34.739Z,0
2018-12-09T04:25:36.856Z,0
2018-12-09T04:26:39.103Z,0
2018-12-09T04:27:41.269Z,0
2018-12-09T04:28:43.716Z,0
2018-12-09T04:29:46.178Z,0
2018-12-09T04:30:48.314Z,0
2018-12-09T04:31:50.744Z,0
2018-12-09T04:32:53.267Z,0
2018-12-09T04:33:55.424Z,0
2018-12-09T04:34:57.558Z,0
2018-12-09T04:35:59.728Z,0
2018-12-09T04:37:02.548Z,0
2018-12-09T04:38:05.639Z,0
2018-12-09T04:39:08.509Z,0
2018-12-09T04:40:11.230Z,0
2018-12-09T04:41:13.375Z,0
2018-12-09T04:42:15.922Z,0
2018-12-09T04:43:18.077Z,0
2018-12-09T04:44:20.518Z,0
2018-12-09T04:45:22.646Z,0
2018-12-09T04:46:24.936Z,0
2018-12-09T04:47:27.400Z,0
2018-12-09T04:48:29.914Z,0
2018-12-09T04:49:32.072Z,0
2018-12-09T04:50:34.641Z,0
2018-12-09T04:51:36.798Z,0
2018-12-09T04:52:38.941Z,0
2018-12-09T04:53:42.388Z,0
2018-12-09T04:54:44.974Z,0
2018-12-09T04:55:47.511Z,0
2018-12-09T04:56:49.667Z,0
2018-12-09T04:57:51.818Z,0
2018-12-09T04:58:53.953Z,0
2018-12-09T04:59:56.386Z,0
2018-12-09T05:00:58.544Z,0
2018-12-09T05:02:00.689Z,0
2018-12-09T05:03:03.233Z,0
2018-12-09T05:04:05.467Z,0
2018-12-09T05:05:07.902Z,0
2018-12-09T05:06:10.320Z,0
2018-12-09T05:07:12.480Z,0
2018-12-09T05:08:15.939Z,0
2018-12-09T05:09:19.738Z,0
2018-12-09T05:10:22.507Z,0
2018-12-09T05:11:24.649Z,0
2018-12-09T05:12:27.093Z,0
2018-12-09T05:13:29.229Z,0
2018-12-09T05:14:31.371Z,0
2018-12-09T05:15:33.813Z,0
2018-12-09T05:16:35.988Z,0
2018-12-09T05:17:38.125Z,0
2018-12-09T05:18:40.274Z,0
2018-12-09T05:19:42.422Z,0
2018-12-09T05:20:44.541Z,0
2018-12-09T05:21:46.698Z,0
2018-12-09T05:22:49.783Z,0
2018-12-09T05:23:52.714Z,0
2018-12-09T05:24:55.197Z,0
2018-12-09T05:25:57.629Z,0
2018-12-09T05:26:59.754Z,0
2018-12-09T05:28:01.899Z,0
2018-12-09T05:29:04.035Z,0
2018-12-09T05:30:06.180Z,0
2018-12-09T05:31:08.619Z,0
2018-12-09T05:32:10.761Z,0
2018-12-09T05:33:12.885Z,0
2018-12-09T05:34:15.021Z,0
2018-12-09T05:35:17.247Z,0
2018-12-09T05:36:19.369Z,0
2018-12-09T05:37:22.653Z,0
2018-12-09T05:38:25.016Z,0
2018-12-09T05:39:27.168Z,0
2018-12-09T05:40:29.299Z,0
2018-12-09T05:41:31.471Z,0
2018-12-09T05:42:33.612Z,0
2018-12-09T05:43:35.772Z,0
2018-12-09T05:44:37.927Z,0
2018-12-09T05:45:40.052Z,0
2018-12-09T05:46:42.265Z,0
2018-12-09T05:47:44.417Z,0
2018-12-09T05:48:46.563Z,0
2018-12-09T05:49:49.072Z,0
2018-12-09T05:50:52.134Z,0
2018-12-09T05:51:55.335Z,0
2018-12-09T05:52:57.806Z,0
2018-12-09T05:53:59.962Z,0
2018-12-09T05:55:02.488Z,0
2018-12-09T05:56:04.640Z,0
2018-12-09T05:57:06.798Z,0
2018-12-09T05:58:08.950Z,0
2018-12-09T05:59:11.095Z,0
2018-12-09T06:00:13.353Z,0
2018-12-09T06:01:15.800Z,0
2018-12-09T06:02:17.943Z,0
2018-12-09T06:03:20.184Z,0
2018-12-09T06:04:22.330Z,0
2018-12-09T06:05:25.724Z,0
2018-12-09T06:06:28.448Z,0
2018-12-09T06:07:30.812Z,0
2018-12-09T06:08:32.956Z,0
2018-12-09T06:09:35.092Z,0
2018-12-09T06:10:37.281Z,0
2018-12-09T06:11:39.433Z,0
2018-12-09T06:12:41.860Z,0
2018-12-09T06:13:43.989Z,0
2018-12-09T06:14:46.445Z,0
2018-12-09T06:15:48.667Z,0
2018-12-09T06:16:51.085Z,0
2018-12-09T06:17:53.635Z,0
2018-12-09T06:18:55.758Z,0
2018-12-09T06:19:59.063Z,0
2018-12-09T06:21:01.483Z,0
2018-12-09T06:22:03.643Z,0
2018-12-09T06:23:05.773Z,0
2018-12-09T06:24:07.927Z,0
2018-12-09T06:25:10.409Z,0
2018-12-09T06:26:12.527Z,0
2018-12-09T06:27:14.681Z,0
2018-12-09T06:28:16.809Z,0
2018-12-09T06:29:18.966Z,0
2018-12-09T06:30:21.126Z,0
2018-12-09T06:31:23.274Z,0
2018-12-09T06:32:25.404Z,0
2018-12-09T06:33:27.573Z,0
2018-12-09T06:34:30.696Z,0
2018-12-09T06:35:33.113Z,0
2018-12-09T06:36:35.276Z,0
2018-12-09T06:37:37.425Z,0
2018-12-09T06:38:39.585Z,0
2018-12-09T06:39:41.712Z,0
2018-12-09T06:40:43.854Z,0
2018-12-09T06:41:45.999Z,0
2018-12-09T06:42:48.122Z,0
2018-12-09T06:43:50.577Z,0
2018-12-09T06:44:52.990Z,0
2018-12-09T06:45:55.529Z,0
2018-12-09T06:46:57.660Z,0
2018-12-09T06:48:00.713Z,0
2018-12-09T06:49:04.160Z,0
2018-12-09T06:50:06.659Z,0
2018-12-09T06:51:08.815Z,0
2018-12-09T06:52:10.943Z,0
2018-12-09T06:53:13.378Z,0
2018-12-09T06:54:15.490Z,0
2018-12-09T06:55:17.643Z,0
2018-12-09T06:56:19.767Z,0
2018-12-09T06:57:21.941Z,0
2018-12-09T06:58:24.076Z,0
2018-12-09T06:59:26.212Z,0
2018-12-09T07:00:28.383Z,0
2018-12-09T07:01:32.917Z,0
2018-12-09T07:02:35.604Z,0
2018-12-09T07:03:38.452Z,0
2018-12-09T07:04:40.597Z,0
2018-12-09T07:05:42.757Z,0
2018-12-09T07:06:44.903Z,0
2018-12-09T07:07:47.023Z,0
2018-12-09T07:08:49.170Z,0
2018-12-09T07:09:51.331Z,0
2018-12-09T07:10:53.479Z,0
2018-12-09T07:11:55.612Z,0
2018-12-09T07:12:57.763Z,0
2018-12-09T07:13:59.951Z,1
2018-12-09T07:15:03.279Z,1
2018-12-09T07:16:06.047Z,1
2018-12-09T07:17:08.926Z,1
2018-12-09T07:18:11.353Z,1
2018-12-09T07:19:14.016Z,1
2018-12-09T07:20:16.141Z,1
2018-12-09T07:21:18.296Z,1
2018-12-09T07:22:20.413Z,1
2018-12-09T07:23:22.813Z,1
2018-12-09T07:24:24.974Z,1
2018-12-09T07:25:27.111Z,1
2018-12-09T07:26:29.267Z,1
2018-12-09T07:27:31.422Z,2
2018-12-09T07:28:33.581Z,2
2018-12-09T07:29:36.879Z,2
2018-12-09T07:30:39.355Z,2
2018-12-09T07:31:41.516Z,2
2018-12-09T07:32:44.027Z,2
2018-12-09T07:33:46.199Z,2
2018-12-09T07:34:48.453Z,2
2018-12-09T07:35:50.607Z,2
2018-12-09T07:36:52.761Z,3
2018-12-09T07:37:54.896Z,3
2018-12-09T07:38:57.027Z,3
2018-12-09T07:39:59.169Z,4
2018-12-09T07:41:01.683Z,4
2018-12-09T07:42:03.817Z,4
2018-12-09T07:43:07.054Z,4
2018-12-09T07:44:09.301Z,3
2018-12-09T07:45:11.429Z,3
2018-12-09T07:46:15.677Z,3
2018-12-09T07:47:18.209Z,4
2018-12-09T07:48:20.346Z,4
2018-12-09T07:49:22.505Z,3
2018-12-09T07:50:25.028Z,3
2018-12-09T07:51:27.825Z,3
2018-12-09T07:52:30.216Z,3
2018-12-09T07:53:32.339Z,2
2018-12-09T07:54:34.722Z,2
2018-12-09T07:55:36.843Z,3
2018-12-09T07:56:38.954Z,3
2018-12-09T07:57:41.063Z,3
2018-12-09T07:58:43.188Z,3
2018-12-09T07:59:45.305Z,3
2018-12-09T08:00:47.421Z,2
2018-12-09T08:01:49.526Z,3
2018-12-09T08:02:51.663Z,3
2018-12-09T08:03:54.064Z,3
2018-12-09T08:04:56.566Z,4
2018-12-09T08:05:58.697Z,6
2018-12-09T08:07:00.801Z,8
2018-12-09T08:08:03.213Z,9
2018-12-09T08:09:05.333Z,10
2018-12-09T08:10:07.435Z,10
2018-12-09T08:11:09.548Z,10
2018-12-09T08:12:11.678Z,9
2018-12-09T08:13:13.788Z,10
2018-12-09T08:14:15.910Z,10
2018-12-09T08:15:18.040Z,10
2018-12-09T08:16:20.446Z,10
2018-12-09T08:17:22.609Z,9
2018-12-09T08:18:24.740Z,7
2018-12-09T08:19:26.849Z,7
2018-12-09T08:20:29.257Z,9
2018-12-09T08:21:31.388Z,7
2018-12-09T08:22:33.505Z,4
2018-12-09T08:23:35.637Z,4
2018-12-09T08:24:37.754Z,4
2018-12-09T08:25:40.157Z,6
2018-12-09T08:26:42.269Z,6
2018-12-09T08:27:44.397Z,5
2018-12-09T08:28:46.616Z,6
2018-12-09T08:29:49.315Z,6
2018-12-09T08:30:51.452Z,6
2018-12-09T08:31:53.847Z,7
2018-12-09T08:32:56.071Z,6
2018-12-09T08:33:58.192Z,7
2018-12-09T08:35:00.587Z,8
2018-12-09T08:36:02.719Z,8
2018-12-09T08:37:04.829Z,9
2018-12-09T08:38:06.953Z,10
2018-12-09T08:39:09.078Z,10
2018-12-09T08:40:11.171Z,10
2018-12-09T08:41:13.689Z,11
2018-12-09T08:42:15.806Z,11
2018-12-09T08:43:18.296Z,11
2018-12-09T08:44:20.416Z,11
2018-12-09T08:45:22.545Z,10
2018-12-09T08:46:24.955Z,10
2018-12-09T08:47:27.086Z,12
2018-12-09T08:48:29.507Z,15
2018-12-09T08:49:31.616Z,20
2018-12-09T08:50:33.735Z,18
2018-12-09T08:51:35.863Z,11
2018-12-09T08:52:37.976Z,8
2018-12-09T08:53:40.095Z,7
2018-12-09T08:54:42.242Z,7
2018-12-09T08:55:44.744Z,7
2018-12-09T08:56:46.876Z,8
2018-12-09T08:57:48.986Z,11
2018-12-09T08:58:51.108Z,11
2018-12-09T08:59:53.510Z,13
2018-12-09T09:00:55.657Z,12
2018-12-09T09:01:58.052Z,8
2018-12-09T09:03:00.170Z,10
2018-12-09T09:04:02.879Z,9
2018-12-09T09:05:05.261Z,9
2018-12-09T09:06:07.393Z,9
2018-12-09T09:07:09.529Z,9
2018-12-09T09:08:11.681Z,11
2018-12-09T09:09:13.788Z,12
2018-12-09T09:10:16.208Z,10
2018-12-09T09:11:18.599Z,9
2018-12-09T09:12:21.131Z,12
2018-12-09T09:13:23.259Z,12
2018-12-09T09:14:25.373Z,13
2018-12-09T09:15:27.503Z,9
2018-12-09T09:16:29.636Z,9
2018-12-09T09:17:31.753Z,10
2018-12-09T09:18:33.873Z,9
2018-12-09T09:19:36.004Z,9
2018-12-09T09:20:38.695Z,9
2018-12-09T09:21:40.813Z,8
2018-12-09T09:22:42.956Z,8
2018-12-09T09:23:45.092Z,8
2018-12-09T09:24:47.202Z,7
2018-12-09T09:25:49.339Z,9
2018-12-09T09:26:51.458Z,10
2018-12-09T09:27:53.865Z,11
2018-12-09T09:28:55.994Z,13
2018-12-09T09:29:58.486Z,16
2018-12-09T09:31:00.604Z,17
2018-12-09T09:32:02.737Z,15
2018-12-09T09:33:05.256Z,15
2018-12-09T09:34:08.045Z,19
2018-12-09T09:35:10.179Z,15
2018-12-09T09:36:12.291Z,16
2018-12-09T09:37:14.395Z,14
2018-12-09T09:38:16.531Z,15
2018-12-09T09:39:18.644Z,12
2018-12-09T09:40:20.767Z,15
2018-12-09T09:41:22.877Z,19
2018-12-09T09:42:25.004Z,22
2018-12-09T09:43:27.122Z,25
2018-12-09T09:44:29.250Z,21
2018-12-09T09:45:31.661Z,20
2018-12-09T09:46:33.765Z,13
2018-12-09T09:47:35.887Z,12
2018-12-09T09:48:38.004Z,14
2018-12-09T09:49:40.124Z,15
2018-12-09T09:50:42.529Z,18
2018-12-09T09:51:45.134Z,16
2018-12-09T09:52:47.264Z,13
2018-12-09T09:53:49.653Z,16
2018-12-09T09:54:51.776Z,17
2018-12-09T09:55:53.907Z,18
2018-12-09T09:56:56.026Z,17
2018-12-09T09:57:58.130Z,19
2018-12-09T09:59:00.270Z,26
2018-12-09T10:00:03.088Z,32
2018-12-09T10:01:05.206Z,30
2018-12-09T10:02:07.374Z,23
2018-12-09T10:03:09.479Z,26
2018-12-09T10:04:11.606Z,32
2018-12-09T10:05:13.828Z,24
2018-12-09T10:06:15.960Z,31
2018-12-09T10:07:18.064Z,25
2018-12-09T10:08:20.189Z,24
2018-12-09T10:09:22.319Z,19
2018-12-09T10:10:24.422Z,13
2018-12-09T10:11:26.831Z,13
2018-12-09T10:12:28.949Z,15
2018-12-09T10:13:31.468Z,18
2018-12-09T10:14:33.579Z,17
2018-12-09T10:15:35.716Z,17
2018-12-09T10:16:37.818Z,19
2018-12-09T10:17:39.942Z,22
2018-12-09T10:18:42.061Z,31
2018-12-09T10:19:44.554Z,59
2018-12-09T10:20:46.685Z,67
2018-12-09T10:21:48.814Z,55
2018-12-09T10:22:50.919Z,66
2018-12-09T10:23:53.041Z,82
2018-12-09T10:24:55.169Z,114
2018-12-09T10:25:57.280Z,73
2018-12-09T10:26:59.407Z,54
2018-12-09T10:28:01.799Z,44
2018-12-09T10:29:04.327Z,39
2018-12-09T10:30:06.452Z,37
2018-12-09T10:31:08.584Z,35
2018-12-09T10:32:11.060Z,34
2018-12-09T10:33:13.188Z,39
2018-12-09T10:34:15.354Z,36
2018-12-09T10:35:17.560Z,36
2018-12-09T10:36:19.690Z,30
2018-12-09T10:37:21.812Z,31
2018-12-09T10:38:23.929Z,36
2018-12-09T10:39:26.421Z,31
2018-12-09T10:40:28.549Z,30
2018-12-09T10:41:30.661Z,30
2018-12-09T10:42:33.064Z,33
2018-12-09T10:43:35.257Z,36
2018-12-09T10:44:37.365Z,32
2018-12-09T10:45:39.493Z,37
2018-12-09T10:46:41.613Z,34
2018-12-09T10:47:44.026Z,28
2018-12-09T10:48:46.230Z,32
2018-12-09T10:49:48.376Z,36
2018-12-09T10:50:50.494Z,37
2018-12-09T10:51:52.699Z,44
2018-12-09T10:52:54.848Z,77
2018-12-09T10:53:56.962Z,89
2018-12-09T10:54:59.379Z,90
2018-12-09T10:56:01.514Z,65
2018-12-09T10:57:03.698Z,67
2018-12-09T10:58:05.803Z,68
2018-12-09T10:59:07.981Z,52
2018-12-09T11:00:10.084Z,56
2018-12-09T11:01:12.207Z,55
2018-12-09T11:02:14.369Z,48
2018-12-09T11:03:16.524Z,48
2018-12-09T11:04:18.672Z,53
2018-12-09T11:05:21.059Z,47
2018-12-09T11:06:23.314Z,43
2018-12-09T11:07:25.435Z,41
2018-12-09T11:08:27.554Z,36
2018-12-09T11:09:29.697Z,34
2018-12-09T11:10:31.811Z,32
2018-12-09T11:11:33.935Z,34
2018-12-09T11:12:36.042Z,36
2018-12-09T11:13:38.190Z,40
2018-12-09T11:14:40.307Z,43
2018-12-09T11:15:42.424Z,45
2018-12-09T11:16:44.838Z,43
2018-12-09T11:17:46.940Z,38
2018-12-09T11:18:49.062Z,32
2018-12-09T11:19:51.180Z,26
2018-12-09T11:20:53.596Z,24
2018-12-09T11:21:55.699Z,22
2018-12-09T11:22:57.830Z,22
2018-12-09T11:23:59.940Z,22
2018-12-09T11:25:02.059Z,23
2018-12-09T11:26:04.584Z,26
2018-12-09T11:27:06.709Z,32
2018-12-09T11:28:08.836Z,35
2018-12-09T11:29:10.971Z,35
2018-12-09T11:30:13.477Z,36
2018-12-09T11:31:15.583Z,35
2018-12-09T11:32:17.705Z,33
2018-12-09T11:33:19.817Z,29
2018-12-09T11:34:22.256Z,25
2018-12-09T11:35:25.058Z,24
2018-12-09T11:36:27.172Z,25
2018-12-09T11:37:29.289Z,28
2018-12-09T11:38:31.426Z,31
2018-12-09T11:39:33.545Z,33
2018-12-09T11:40:35.674Z,34
2018-12-09T11:41:37.789Z,33
2018-12-09T11:42:39.923Z,32
2018-12-09T11:43:42.112Z,32
2018-12-09T11:44:44.234Z,31
2018-12-09T11:45:46.413Z,31
2018-12-09T11:46:48.553Z,32
2018-12-09T11:47:50.670Z,32
2018-12-09T11:48:52.792Z,32
2018-12-09T11:49:55.223Z,32
2018-12-09T11:50:57.606Z,31
2018-12-09T11:51:59.741Z,31
2018-12-09T11:53:01.852Z,32
2018-12-09T11:54:04.072Z,31
2018-12-09T11:55:06.557Z,28
2018-12-09T11:56:08.688Z,25
2018-12-09T11:57:10.804Z,25
2018-12-09T11:58:12.913Z,25
2018-12-09T11:59:15.347Z,26
2018-12-09T12:00:17.565Z,29
2018-12-09T12:01:19.683Z,28
2018-12-09T12:02:21.819Z,31
2018-12-09T12:03:23.938Z,35
2018-12-09T12:04:26.051Z,26
2018-12-09T12:05:28.176Z,23
2018-12-09T12:06:30.281Z,23
2018-12-09T12:07:32.399Z,34
2018-12-09T12:08:34.923Z,26
2018-12-09T12:09:37.052Z,21
2018-12-09T12:10:39.161Z,23
2018-12-09T12:11:41.301Z,26
2018-12-09T12:12:43.424Z,38
2018-12-09T12:13:45.865Z,100
2018-12-09T12:14:48.007Z,111
2018-12-09T12:15:50.115Z,134
2018-12-09T12:16:52.250Z,131
2018-12-09T12:17:54.363Z,104
2018-12-09T12:18:56.491Z,64
2018-12-09T12:19:58.607Z,61
2018-12-09T12:21:00.721Z,56
2018-12-09T12:22:02.852Z,55
2018-12-09T12:23:05.017Z,154
2018-12-09T12:24:07.117Z,44
2018-12-09T12:25:09.245Z,42
2018-12-09T12:26:11.374Z,36
2018-12-09T12:27:13.507Z,33
2018-12-09T12:28:15.613Z,32
2018-12-09T12:29:18.233Z,26
2018-12-09T12:30:20.707Z,39
2018-12-09T12:31:22.827Z,29
2018-12-09T12:32:24.958Z,32
2018-12-09T12:33:27.082Z,41
2018-12-09T12:34:29.205Z,50
2018-12-09T12:35:31.343Z,49
2018-12-09T12:36:33.464Z,36
2018-12-09T12:37:35.588Z,28
2018-12-09T12:38:37.709Z,33
2018-12-09T12:39:39.830Z,42
2018-12-09T12:40:41.946Z,44
2018-12-09T12:41:44.381Z,39
2018-12-09T12:42:46.503Z,38
2018-12-09T12:43:48.609Z,37
2018-12-09T12:44:50.753Z,39
2018-12-09T12:45:52.871Z,42
2018-12-09T12:46:54.987Z,40
2018-12-09T12:47:57.729Z,40
2018-12-09T12:48:59.840Z,41
2018-12-09T12:50:01.973Z,41
2018-12-09T12:51:04.380Z,39
2018-12-09T12:52:06.514Z,40
2018-12-09T12:53:08.626Z,40
2018-12-09T12:54:11.040Z,44
2018-12-09T12:55:13.157Z,46
2018-12-09T12:56:15.267Z,51
2018-12-09T12:57:17.411Z,50
2018-12-09T12:58:19.825Z,47
2018-12-09T12:59:21.940Z,42
2018-12-09T13:00:24.331Z,43
2018-12-09T13:01:26.754Z,38
2018-12-09T13:02:28.862Z,48
2018-12-09T13:03:30.990Z,51
2018-12-09T13:04:33.117Z,36
2018-12-09T13:05:35.218Z,37
2018-12-09T13:06:37.916Z,33
2018-12-09T13:07:40.033Z,36
2018-12-09T13:08:42.153Z,41
2018-12-09T13:09:44.300Z,40
2018-12-09T13:10:46.432Z,37
2018-12-09T13:11:48.543Z,37
2018-12-09T13:12:50.673Z,32
2018-12-09T13:13:53.082Z,30
2018-12-09T13:14:55.260Z,32
2018-12-09T13:15:57.376Z,29
2018-12-09T13:16:59.561Z,27
2018-12-09T13:18:01.681Z,29
2018-12-09T13:19:03.811Z,28
2018-12-09T13:20:05.930Z,26
2018-12-09T13:21:08.053Z,25
2018-12-09T13:22:10.572Z,24
2018-12-09T13:23:12.696Z,22
2018-12-09T13:24:14.826Z,21
2018-12-09T13:25:16.945Z,20
2018-12-09T13:26:19.088Z,20
2018-12-09T13:27:21.197Z,20
2018-12-09T13:28:23.327Z,20
2018-12-09T13:29:25.469Z,19
2018-12-09T13:30:27.583Z,18
2018-12-09T13:31:30.104Z,16
2018-12-09T13:32:32.224Z,15
2018-12-09T13:33:34.351Z,14
2018-12-09T13:34:36.454Z,13
2018-12-09T13:35:38.584Z,11
2018-12-09T13:36:40.702Z,8
2018-12-09T13:37:42.850Z,6
2018-12-09T13:38:44.952Z,8
2018-12-09T13:39:47.084Z,8
2018-12-09T13:40:49.589Z,10
2018-12-09T13:41:52.078Z,10
2018-12-09T13:42:54.585Z,11
2018-12-09T13:43:56.708Z,12
2018-12-09T13:44:58.826Z,11
2018-12-09T13:46:00.957Z,11
2018-12-09T13:47:03.378Z,12
2018-12-09T13:48:05.778Z,12
2018-12-09T13:49:07.912Z,13
2018-12-09T13:50:10.041Z,12
2018-12-09T13:51:12.145Z,12
2018-12-09T13:52:14.276Z,11
2018-12-09T13:53:16.403Z,10
2018-12-09T13:54:18.520Z,10
2018-12-09T13:55:20.649Z,10
2018-12-09T13:56:22.765Z,8
2018-12-09T13:57:25.169Z,7
2018-12-09T13:58:27.287Z,7
2018-12-09T13:59:29.441Z,7
2018-12-09T14:00:31.946Z,7
2018-12-09T14:01:34.063Z,7
2018-12-09T14:02:36.195Z,6
2018-12-09T14:03:38.302Z,6
2018-12-09T14:04:40.434Z,5
2018-12-09T14:05:42.556Z,5
2018-12-09T14:06:44.678Z,5
2018-12-09T14:07:46.788Z,4
2018-12-09T14:08:49.002Z,4
2018-12-09T14:09:51.110Z,4
2018-12-09T14:10:53.292Z,4
2018-12-09T14:11:55.454Z,3
2018-12-09T14:12:57.933Z,3
2018-12-09T14:14:00.063Z,3
2018-12-09T14:15:02.843Z,2
2018-12-09T14:16:05.127Z,2
2018-12-09T14:17:07.484Z,2
2018-12-09T14:18:09.623Z,2
2018-12-09T14:19:11.880Z,3
2018-12-09T14:20:14.514Z,2
2018-12-09T14:21:16.627Z,2
2018-12-09T14:22:18.769Z,2
2018-12-09T14:23:20.924Z,2
2018-12-09T14:24:23.025Z,1
2018-12-09T14:25:25.158Z,1
2018-12-09T14:26:27.400Z,1
2018-12-09T14:27:29.557Z,1
2018-12-09T14:28:31.696Z,1
2018-12-09T14:29:34.244Z,1
2018-12-09T14:30:36.481Z,2
2018-12-09T14:31:38.610Z,2
2018-12-09T14:32:41.052Z,2
2018-12-09T14:33:43.159Z,2
2018-12-09T14:34:45.359Z,2
2018-12-09T14:35:47.486Z,1
2018-12-09T14:36:50.213Z,1
2018-12-09T14:37:52.347Z,1
2018-12-09T14:38:54.641Z,1
2018-12-09T14:39:57.468Z,1
2018-12-09T14:40:59.906Z,1
2018-12-09T14:42:02.056Z,1
2018-12-09T14:43:04.186Z,1
2018-12-09T14:44:06.327Z,1
2018-12-09T14:45:08.472Z,1
2018-12-09T14:46:10.674Z,1
2018-12-09T14:47:13.190Z,1
2018-12-09T14:48:16.031Z,1
2018-12-09T14:49:18.445Z,1
2018-12-09T14:50:20.613Z,0
2018-12-09T14:51:22.745Z,0
2018-12-09T14:52:25.263Z,0
2018-12-09T14:53:27.705Z,0
2018-12-09T14:54:29.811Z,0
2018-12-09T14:55:32.346Z,0
2018-12-09T14:56:34.476Z,0
2018-12-09T14:57:36.609Z,0
2018-12-09T14:58:38.741Z,0
2018-12-09T14:59:40.878Z,0
2018-12-09T15:00:43.012Z,0
2018-12-09T15:01:45.449Z,0
2018-12-09T15:02:47.858Z,0
2018-12-09T15:03:50.752Z,0
2018-12-09T15:04:52.858Z,0
2018-12-09T15:05:54.992Z,0
2018-12-09T15:06:57.104Z,0
2018-12-09T15:07:59.228Z,0
2018-12-09T15:09:01.357Z,0
2018-12-09T15:10:10.260Z,0